Time;durP1;ratioP1;P1;durP2;ratioP2;P2;SDS_P1;SDS_P2;PMS_P1;PMS_P2;Temp;Humidity;BMP_temperature;BMP_pressure;BME280_temperature;BME280_humidity;BME280_pressure;Samples;Min_cycle;Max_cycle;Signal;HPM_P1;HPM_P2
2023/10/02 00:01:51;;;;;;;;;8.00;7.60;;;;;16.92;100.00;99541.50;6202882;28;96919;-67
2023/10/02 00:04:55;;;;;;;;;8.00;8.00;;;;;16.88;100.00;99542.00;6238152;28;96334;-68
2023/10/02 00:08:00;;;;;;;;;8.40;7.40;;;;;16.92;100.00;99539.59;6237883;28;96799;-68
2023/10/02 00:14:38;;;;;;;;;9.60;9.00;;;;;16.98;100.00;99535.06;6219718;28;96521;-69
2023/10/02 00:17:43;;;;;;;;;8.20;8.00;;;;;17.00;100.00;99539.22;6237941;28;96391;-68
2023/10/02 00:21:17;;;;;;;;;9.40;8.40;;;;;17.04;100.00;99531.38;6238856;28;96426;-68
2023/10/02 00:24:13;;;;;;;;;8.00;7.00;;;;;17.04;100.00;99525.91;6238152;27;96313;-68
2023/10/02 00:27:16;;;;;;;;;9.00;7.25;;;;;17.03;100.00;99527.81;6207265;28;96742;-68
2023/10/02 00:30:21;;;;;;;;;9.50;9.00;;;;;16.95;100.00;99514.63;6204497;28;98514;-68
2023/10/02 00:33:27;;;;;;;;;8.60;8.00;;;;;17.03;100.00;99524.25;6255168;27;97731;-68
2023/10/02 00:36:31;;;;;;;;;8.00;8.00;;;;;17.05;100.00;99528.41;6259595;27;96516;-68
2023/10/02 00:39:37;;;;;;;;;10.50;9.25;;;;;17.07;100.00;99520.78;6241714;28;96485;-67
2023/10/02 00:42:40;;;;;;;;;6.00;6.00;;;;;17.09;100.00;99513.19;6223426;28;97437;-68
2023/10/02 00:45:42;;;;;;;;;8.80;7.80;;;;;17.11;100.00;99513.75;6223642;28;96631;-68
2023/10/02 00:48:45;;;;;;;;;8.75;8.75;;;;;17.09;100.00;99512.38;6242476;28;96292;-69
2023/10/02 00:52:00;;;;;;;;;7.80;7.80;;;;;17.12;100.00;99511.88;6223550;28;96332;-68
2023/10/02 00:55:06;;;;;;;;;5.60;5.00;;;;;17.21;100.00;99511.19;6222160;28;96321;-68
2023/10/02 00:58:15;;;;;;;;;7.80;7.00;;;;;17.28;100.00;99508.31;6219680;28;96506;-68
2023/10/02 01:01:19;;;;;;;;;10.00;10.00;;;;;17.30;100.00;99501.50;6224043;28;96339;-68
2023/10/02 01:04:28;;;;;;;;;6.75;6.25;;;;;17.32;100.00;99513.00;6241325;28;96296;-68
2023/10/02 01:07:33;;;;;;;;;8.00;8.00;;;;;17.35;100.00;99510.88;6241560;28;96269;-68
2023/10/02 01:10:40;;;;;;;;;8.80;6.80;;;;;17.33;100.00;99509.22;6241595;28;96660;-68
2023/10/02 01:13:44;;;;;;;;;10.00;8.00;;;;;17.35;100.00;99508.16;6242477;28;96189;-68
2023/10/02 01:16:50;;;;;;;;;9.00;9.00;;;;;17.29;100.00;99496.34;6241761;28;96250;-68
2023/10/02 01:19:54;;;;;;;;;9.40;8.40;;;;;17.36;100.00;99517.94;6215698;28;96385;-68
2023/10/02 01:23:16;;;;;;;;;9.33;8.00;;;;;17.38;100.00;99519.34;6224104;28;96673;-69
2023/10/02 01:26:20;;;;;;;;;8.00;8.00;;;;;17.33;100.00;99517.38;6241415;28;97807;-69
2023/10/02 01:29:23;;;;;;;;;9.00;8.00;;;;;17.28;100.00;99506.41;6222713;28;97377;-68
2023/10/02 01:32:26;;;;;;;;;6.75;6.75;;;;;17.30;100.00;99512.41;6223297;28;96214;-68
2023/10/02 01:35:31;;;;;;;;;8.00;7.00;;;;;17.27;100.00;99518.38;6241391;28;97432;-68
2023/10/02 01:38:37;;;;;;;;;10.00;9.00;;;;;17.27;100.00;99523.81;6223065;28;96857;-68
2023/10/02 01:41:48;;;;;;;;;8.00;7.00;;;;;17.26;100.00;99526.78;6240411;28;96877;-68
2023/10/02 01:44:55;;;;;;;;;9.00;8.00;;;;;17.21;100.00;99519.38;6223214;28;96305;-68
2023/10/02 01:47:59;;;;;;;;;7.00;7.00;;;;;17.19;100.00;99528.88;6223721;28;96355;-68
2023/10/02 01:51:15;;;;;;;;;8.50;7.00;;;;;17.25;100.00;99536.06;6215284;28;96382;-68
2023/10/02 01:54:19;;;;;;;;;5.60;5.00;;;;;17.27;100.00;99536.63;6220310;28;96407;-68
2023/10/02 01:57:29;;;;;;;;;9.40;8.40;;;;;17.26;100.00;99537.69;6248131;27;96959;-67
2023/10/02 02:00:34;;;;;;;;;9.00;8.50;;;;;17.24;100.00;99542.59;6221185;28;96530;-67
2023/10/02 02:03:38;;;;;;;;;9.00;9.00;;;;;17.24;100.00;99535.25;6203416;28;96960;-68
2023/10/02 02:06:51;;;;;;;;;12.00;11.00;;;;;17.25;100.00;99545.03;6237654;28;96510;-67
2023/10/02 02:09:54;;;;;;;;;9.50;9.50;;;;;17.26;100.00;99534.97;6220145;28;97054;-67
2023/10/02 02:12:59;;;;;;;;;10.00;10.00;;;;;17.22;100.00;99542.00;6219341;28;96755;-68
2023/10/02 02:16:07;;;;;;;;;10.50;10.00;;;;;17.22;100.00;99534.66;6239334;28;96361;-68
2023/10/02 02:19:12;;;;;;;;;12.00;11.00;;;;;17.25;100.00;99538.78;6221864;28;96248;-68
2023/10/02 02:22:16;;;;;;;;;10.00;8.25;;;;;17.26;100.00;99534.97;6239685;28;96259;-67
2023/10/02 02:25:26;;;;;;;;;9.00;8.00;;;;;17.27;100.00;99536.63;6240208;28;96389;-68
2023/10/02 02:28:43;;;;;;;;;9.00;8.60;;;;;17.20;100.00;99536.78;6221868;28;96502;-68
2023/10/02 02:31:47;;;;;;;;;10.00;10.00;;;;;17.23;100.00;99536.31;6233244;27;96352;-68
2023/10/02 02:35:00;;;;;;;;;11.00;10.00;;;;;17.12;100.00;99517.31;6237923;28;96354;-68
2023/10/02 02:38:13;;;;;;;;;10.80;9.80;;;;;17.18;100.00;99529.94;6239765;28;96475;-67
2023/10/02 02:41:18;;;;;;;;;11.80;11.00;;;;;17.17;100.00;99525.56;6222137;28;96371;-68
2023/10/02 02:44:39;;;;;;;;;12.40;11.00;;;;;17.20;100.00;99534.06;6204320;28;98780;-68
2023/10/02 02:47:51;;;;;;;;;8.75;8.50;;;;;17.20;100.00;99531.34;6221666;28;96965;-68
2023/10/02 02:50:54;;;;;;;;;13.60;11.40;;;;;17.18;100.00;99528.06;6213419;28;96936;-69
2023/10/02 02:53:58;;;;;;;;;11.00;11.00;;;;;17.23;100.00;99524.56;6219960;28;97425;-68
2023/10/02 02:57:04;;;;;;;;;9.40;9.40;;;;;17.26;100.00;99527.63;6220475;28;96129;-68
2023/10/02 03:00:31;;;;;;;;;12.00;12.00;;;;;17.29;100.00;99534.50;6254041;27;96552;-68
2023/10/02 03:03:41;;;;;;;;;11.25;10.25;;;;;17.30;100.00;99530.66;6231922;27;96758;-68
2023/10/02 03:06:44;;;;;;;;;11.00;10.00;;;;;17.31;100.00;99532.31;6236342;28;96299;-68
2023/10/02 03:09:47;;;;;;;;;9.50;9.50;;;;;17.31;100.00;99540.50;6219584;28;96705;-67
2023/10/02 03:12:52;;;;;;;;;9.40;8.40;;;;;17.33;100.00;99535.63;6237848;28;96354;-68
2023/10/02 03:16:08;;;;;;;;;12.00;11.00;;;;;17.33;100.00;99532.91;6220784;28;96749;-68
2023/10/02 03:19:13;;;;;;;;;11.00;9.00;;;;;17.36;100.00;99537.84;6230074;27;98618;-68
2023/10/02 03:22:20;;;;;;;;;10.40;10.40;;;;;17.33;100.00;99527.47;6243385;27;97728;-68
2023/10/02 03:25:40;;;;;;;;;11.80;10.80;;;;;17.33;100.00;99535.63;6237616;27;96524;-68
2023/10/02 03:28:44;;;;;;;;;10.40;10.00;;;;;17.35;100.00;99540.84;6236087;27;96943;-67
2023/10/02 03:31:50;;;;;;;;;9.40;9.40;;;;;17.33;100.00;99525.56;6238285;27;96544;-67
2023/10/02 03:35:02;;;;;;;;;8.40;8.00;;;;;17.36;100.00;99526.94;6203343;28;96827;-68
2023/10/02 03:38:06;;;;;;;;;8.60;8.40;;;;;17.36;100.00;99529.69;6237060;28;97618;-66
2023/10/02 03:41:10;;;;;;;;;9.00;8.40;;;;;17.32;100.00;99531.25;6220584;28;96358;-65
2023/10/02 03:44:14;;;;;;;;;8.60;8.60;;;;;17.37;100.00;99528.59;6237775;28;96560;-66
2023/10/02 03:47:18;;;;;;;;;12.40;12.00;;;;;17.39;100.00;99533.81;6232872;27;96882;-65
2023/10/02 03:50:24;;;;;;;;;10.20;10.20;;;;;17.37;100.00;99527.78;6211875;28;97450;-65
2023/10/02 03:53:30;;;;;;;;;9.60;9.00;;;;;17.40;100.00;99541.72;6211768;27;97940;-65
2023/10/02 03:56:42;;;;;;;;;12.00;10.00;;;;;17.40;100.00;99549.91;6214596;28;96746;-67
2023/10/02 03:59:52;;;;;;;;;11.00;10.00;;;;;17.42;100.00;99555.09;6233361;28;96392;-67
2023/10/02 04:02:59;;;;;;;;;10.25;9.25;;;;;17.39;100.00;99550.16;6232803;28;97076;-68
2023/10/02 04:06:05;;;;;;;;;10.00;10.00;;;;;17.41;100.00;99553.44;6205478;27;97499;-68
2023/10/02 04:09:12;;;;;;;;;10.00;10.00;;;;;17.36;100.00;99542.47;6248101;27;98505;-68
2023/10/02 04:12:17;;;;;;;;;11.20;11.20;;;;;17.45;100.00;99552.69;6255129;27;96389;-67
2023/10/02 04:15:21;;;;;;;;;11.00;9.50;;;;;17.41;100.00;99548.84;6217737;27;98000;-67
2023/10/02 04:21:53;;;;;;;;;9.00;9.00;;;;;17.33;100.00;99549.25;6228447;27;96495;-67
2023/10/02 04:25:03;;;;;;;;;9.00;9.00;;;;;17.29;100.00;99548.94;6238193;27;96416;-68
2023/10/02 04:28:08;;;;;;;;;11.60;10.00;;;;;17.35;100.00;99549.03;6235542;28;96464;-68
2023/10/02 04:31:20;;;;;;;;;10.00;9.80;;;;;17.33;100.00;99550.09;6227588;27;96328;-68
2023/10/02 04:34:29;;;;;;;;;10.00;9.00;;;;;17.36;100.00;99551.47;6230062;27;96407;-68
2023/10/02 04:37:36;;;;;;;;;9.25;9.00;;;;;17.43;100.00;99551.31;6235449;28;96288;-68
2023/10/02 04:40:49;;;;;;;;;9.00;9.00;;;;;17.36;100.00;99543.31;6239681;28;96494;-68
2023/10/02 04:43:57;;;;;;;;;10.00;9.40;;;;;17.46;100.00;99548.06;6236662;28;98532;-67
2023/10/02 04:47:01;;;;;;;;;10.00;8.00;;;;;17.47;100.00;99547.00;6240183;27;97618;-68
2023/10/02 04:53:28;;;;;;;;;9.00;8.00;;;;;17.51;100.00;99548.16;6232724;28;96622;-64
2023/10/02 04:56:32;;;;;;;;;9.00;8.40;;;;;17.54;100.00;99564.84;6240443;28;96433;-68
2023/10/02 04:59:51;;;;;;;;;11.00;11.00;;;;;17.58;100.00;99559.72;6227287;27;97159;-67
2023/10/02 05:03:09;;;;;;;;;10.00;10.00;;;;;17.61;100.00;99562.78;6226949;28;96529;-66
2023/10/02 05:06:16;;;;;;;;;11.00;10.20;;;;;17.66;100.00;99556.59;6212774;28;96689;-67
2023/10/02 05:09:25;;;;;;;;;8.60;8.60;;;;;17.68;100.00;99565.34;6237156;28;96809;-67
2023/10/02 05:12:31;;;;;;;;;8.00;6.20;;;;;17.73;100.00;99568.16;6239876;28;96353;-68
2023/10/02 05:15:33;;;;;;;;;10.50;9.50;;;;;17.74;100.00;99567.06;6241365;28;96341;-68
2023/10/02 05:18:36;;;;;;;;;8.00;8.00;;;;;17.79;100.00;99569.84;6227920;27;96598;-68
2023/10/02 05:21:46;;;;;;;;;9.80;8.60;;;;;17.81;100.00;99575.06;6220233;28;96284;-67
2023/10/02 05:24:49;;;;;;;;;10.25;9.75;;;;;17.83;100.00;99579.22;6222090;28;96597;-68
2023/10/02 05:27:55;;;;;;;;;11.80;10.80;;;;;17.82;100.00;99588.47;6240744;28;96799;-68
2023/10/02 05:30:58;;;;;;;;;10.60;10.00;;;;;17.86;100.00;99589.59;6237306;28;96569;-68
2023/10/02 05:34:07;;;;;;;;;8.40;8.40;;;;;17.91;100.00;99592.41;6240484;28;96373;-68
2023/10/02 05:37:12;;;;;;;;;12.00;11.00;;;;;17.94;100.00;99577.41;6217564;28;96727;-67
2023/10/02 05:43:55;;;;;;;;;11.00;10.00;;;;;18.00;100.00;99581.88;6221336;28;98478;-68
2023/10/02 05:47:05;;;;;;;;;9.00;9.00;;;;;18.03;100.00;99584.91;6254223;27;96965;-68
2023/10/02 05:50:09;;;;;;;;;10.50;10.50;;;;;18.09;100.00;99574.88;6240158;28;96290;-68
2023/10/02 05:53:15;;;;;;;;;8.00;7.50;;;;;18.18;100.00;99571.44;6239879;28;96386;-68
2023/10/02 05:56:18;;;;;;;;;9.60;9.60;;;;;18.31;100.00;99580.34;6237823;28;96741;-68
2023/10/02 05:59:24;;;;;;;;;9.00;8.00;;;;;18.38;100.00;99583.69;6238486;28;96294;-68
2023/10/02 06:02:28;;;;;;;;;7.50;6.75;;;;;18.45;100.00;99589.78;6239482;27;96414;-68
2023/10/02 06:05:31;;;;;;;;;8.00;8.00;;;;;18.58;100.00;99592.16;6239344;28;96545;-68
2023/10/02 06:08:40;;;;;;;;;10.00;10.00;;;;;18.60;100.00;99590.81;6237830;28;97290;-68
2023/10/02 06:12:02;;;;;;;;;7.75;7.00;;;;;18.62;100.00;99584.28;6240397;28;96371;-68
2023/10/02 06:15:42;;;;;;;;;7.60;7.00;;;;;18.80;100.00;99600.31;6221823;28;97925;-67
2023/10/02 06:18:31;;;;;;;;;8.60;8.00;;;;;18.92;100.00;99601.78;6222063;27;96838;-68
2023/10/02 06:21:45;;;;;;;;;7.60;7.40;;;;;19.03;100.00;99603.53;6247600;27;96702;-68
2023/10/02 06:24:51;;;;;;;;;9.67;7.67;;;;;19.14;100.00;99612.66;6259005;27;96276;-68
2023/10/02 06:28:19;;;;;;;;;8.00;8.00;;;;;19.20;100.00;99617.09;6263724;27;96328;-68
2023/10/02 06:31:30;;;;;;;;;7.00;7.00;;;;;19.28;100.00;99621.25;6261665;27;96766;-68
2023/10/02 06:34:39;;;;;;;;;7.40;6.40;;;;;19.35;100.00;99625.41;6264142;27;96983;-68
2023/10/02 06:37:45;;;;;;;;;8.00;7.00;;;;;19.41;100.00;99627.09;6272940;27;96421;-68
2023/10/02 06:40:56;;;;;;;;;8.60;8.00;;;;;19.41;100.00;99618.91;6221242;28;97102;-68
2023/10/02 06:44:14;;;;;;;;;8.80;8.80;;;;;19.42;100.00;99619.72;6255256;27;96833;-68
2023/10/02 06:47:18;;;;;;;;;8.00;7.40;;;;;19.48;100.00;99618.72;6239177;28;96393;-68
2023/10/02 06:50:30;;;;;;;;;10.00;10.00;;;;;19.64;100.00;99606.81;6220264;28;99067;-68
2023/10/02 06:53:33;;;;;;;;;8.80;8.00;;;;;19.86;100.00;99618.44;6239249;28;96048;-68
2023/10/02 06:56:41;;;;;;;;;9.00;9.00;;;;;20.04;100.00;99619.88;6238469;28;96309;-67
2023/10/02 06:59:53;;;;;;;;;7.00;6.60;;;;;20.19;100.00;99619.97;6239024;28;96237;-68
2023/10/02 07:02:57;;;;;;;;;8.00;7.40;;;;;20.34;100.00;99616.50;6239102;28;96911;-68
2023/10/02 07:06:07;;;;;;;;;7.00;7.00;;;;;20.64;100.00;99627.56;6204178;28;97029;-68
2023/10/02 07:09:11;;;;;;;;;6.40;6.00;;;;;21.00;100.00;99617.53;6239544;28;96389;-68
2023/10/02 07:12:16;;;;;;;;;6.25;6.00;;;;;21.23;100.00;99618.13;6238955;28;96432;-68
2023/10/02 07:15:22;;;;;;;;;7.00;6.00;;;;;21.60;100.00;99618.66;6239131;28;96847;-68
2023/10/02 07:18:35;;;;;;;;;8.00;7.20;;;;;21.81;100.00;99623.03;6239606;28;97076;-68
2023/10/02 07:21:40;;;;;;;;;7.20;7.20;;;;;21.96;100.00;99627.69;6254914;27;96322;-68
2023/10/02 07:24:45;;;;;;;;;7.80;7.40;;;;;22.16;100.00;99627.63;6220783;28;97245;-69
2023/10/02 07:27:57;;;;;;;;;10.00;9.00;;;;;22.78;100.00;99626.28;6220757;28;97873;-68
2023/10/02 07:31:00;;;;;;;;;7.60;6.80;;;;;23.92;100.00;99627.63;6238672;28;96506;-68
2023/10/02 07:34:07;;;;;;;;;7.00;7.00;;;;;24.44;100.00;99634.19;6219250;28;96700;-69
2023/10/02 07:37:13;;;;;;;;;7.00;6.40;;;;;24.74;100.00;99636.56;6236375;28;97057;-68
2023/10/02 07:40:17;;;;;;;;;6.00;5.40;;;;;24.90;100.00;99634.47;6238644;28;96317;-68
2023/10/02 07:43:23;;;;;;;;;11.00;10.00;;;;;25.09;100.00;99639.97;6242110;27;96418;-68
2023/10/02 07:46:27;;;;;;;;;7.00;6.20;;;;;25.42;100.00;99636.94;6223993;28;96770;-69
2023/10/02 07:49:32;;;;;;;;;8.00;8.00;;;;;25.86;100.00;99636.50;6258187;27;96423;-68
2023/10/02 07:52:38;;;;;;;;;11.00;11.00;;;;;27.14;100.00;99641.91;6223622;27;96476;-66
2023/10/02 07:55:47;;;;;;;;;8.40;7.40;;;;;27.25;100.00;99645.25;6242487;28;96855;-66
2023/10/02 07:58:55;;;;;;;;;8.00;8.00;;;;;27.38;100.00;99638.00;6241329;28;96504;-67
2023/10/02 08:02:21;;;;;;;;;8.60;8.60;;;;;27.44;100.00;99640.34;6241767;28;97594;-69
2023/10/02 08:05:21;;;;;;;;;6.00;6.00;;;;;27.33;100.00;99638.97;6241214;28;96942;-69
2023/10/02 08:08:31;;;;;;;;;8.00;8.00;;;;;27.32;100.00;99636.53;6257261;27;96317;-69
2023/10/02 08:11:35;;;;;;;;;12.00;10.00;;;;;27.20;100.00;99636.25;6239602;28;96660;-67
2023/10/02 08:14:42;;;;;;;;;7.40;7.00;;;;;27.33;100.00;99635.38;6241072;28;96449;-67
2023/10/02 08:21:16;;;;;;;;;9.00;8.20;;;;;28.17;100.00;99632.69;6182671;28;96128;-69
2023/10/02 08:24:19;;;;;;;;;7.00;7.00;;;;;29.21;94.66;99631.81;6241062;27;96691;-69
2023/10/02 08:27:22;;;;;;;;;10.00;9.25;;;;;30.28;88.91;99620.66;6241052;28;96422;-67
2023/10/02 08:30:29;;;;;;;;;7.60;7.60;;;;;31.01;85.57;99605.31;6240870;28;96340;-67
2023/10/02 08:33:33;;;;;;;;;8.00;7.33;;;;;31.21;85.43;99621.25;6221749;28;96652;-67
2023/10/02 08:37:07;;;;;;;;;11.20;10.80;;;;;32.02;78.44;99617.00;6241079;28;96283;-67
2023/10/02 08:40:14;;;;;;;;;8.00;8.00;;;;;32.57;75.70;99610.91;6241229;28;96292;-70
2023/10/02 08:43:22;;;;;;;;;8.60;7.60;;;;;33.16;73.67;99608.41;6219325;28;96318;-70
2023/10/02 08:46:27;;;;;;;;;11.00;9.25;;;;;33.53;68.28;99608.25;6252944;27;96302;-70
2023/10/02 08:49:30;;;;;;;;;8.00;8.00;;;;;33.93;63.06;99600.56;6232720;28;98284;-68
2023/10/02 08:52:41;;;;;;;;;7.50;6.75;;;;;34.27;61.05;99605.50;6239876;27;96357;-68
2023/10/02 08:55:54;;;;;;;;;10.00;10.00;;;;;34.47;60.72;99608.34;6240254;28;96382;-70
2023/10/02 08:59:16;;;;;;;;;10.00;9.00;;;;;34.56;60.50;99601.38;6221765;28;96663;-67
2023/10/02 09:02:21;;;;;;;;;8.00;7.00;;;;;35.14;55.91;99598.69;6222386;28;97088;-68
2023/10/02 09:05:36;;;;;;;;;9.00;7.20;;;;;35.50;52.81;99597.47;6239114;27;96391;-67
2023/10/02 09:09:12;;;;;;;;;6.25;6.00;;;;;35.72;52.70;99596.75;6221701;28;97089;-67
2023/10/02 09:12:14;;;;;;;;;9.20;8.20;;;;;35.45;52.71;99584.56;6240020;28;96260;-67
2023/10/02 09:15:29;;;;;;;;;7.00;7.00;;;;;35.02;55.45;99591.25;6240177;28;96410;-67
2023/10/02 09:19:07;;;;;;;;;9.00;8.00;;;;;34.20;61.36;99579.31;6221920;28;96348;-67
2023/10/02 09:22:10;;;;;;;;;7.00;7.00;;;;;33.28;59.17;99579.59;6203559;28;96757;-67
2023/10/02 09:25:15;;;;;;;;;7.20;7.00;;;;;32.87;65.25;99586.34;6239912;28;96463;-69
2023/10/02 09:28:40;;;;;;;;;8.80;7.60;;;;;32.16;68.88;99584.84;6222148;28;96443;-70
2023/10/02 09:31:44;;;;;;;;;10.00;9.00;;;;;32.41;71.22;99580.09;6229305;27;96220;-67
2023/10/02 09:38:31;;;;;;;;;9.50;9.25;;;;;32.38;70.44;99582.78;6230339;28;96299;-68
2023/10/02 09:41:36;;;;;;;;;9.25;9.25;;;;;32.40;72.37;99575.66;6240063;28;96356;-70
2023/10/02 09:44:45;;;;;;;;;10.00;10.00;;;;;32.23;69.80;99567.53;6221635;28;96440;-68
2023/10/02 09:47:49;;;;;;;;;11.00;10.00;;;;;32.01;74.46;99565.19;6221287;28;98622;-67
2023/10/02 09:51:14;;;;;;;;;9.60;9.00;;;;;31.83;76.21;99559.81;6239362;28;96754;-70
2023/10/02 09:54:28;;;;;;;;;8.00;8.00;;;;;31.50;77.36;99559.00;6220935;28;96822;-67
2023/10/02 09:57:37;;;;;;;;;10.00;9.00;;;;;31.71;77.14;99557.00;6239308;28;96397;-67
2023/10/02 10:00:42;;;;;;;;;9.00;7.80;;;;;31.93;74.02;99552.97;6237018;28;96900;-67
2023/10/02 10:03:48;;;;;;;;;8.00;8.00;;;;;31.98;75.02;99560.28;6220326;28;98352;-68
2023/10/02 10:07:26;;;;;;;;;7.67;7.00;;;;;31.76;74.10;99565.16;6219733;28;96461;-67
2023/10/02 10:10:45;;;;;;;;;9.50;8.50;;;;;31.91;76.65;99571.22;6239086;28;96195;-67
2023/10/02 10:13:51;;;;;;;;;7.60;7.00;;;;;32.32;72.95;99576.59;6239393;28;96367;-67
2023/10/02 10:16:54;;;;;;;;;8.00;7.00;;;;;32.63;70.56;99576.00;6239443;28;96212;-67
2023/10/02 10:20:26;;;;;;;;;9.60;9.00;;;;;33.41;69.18;99575.56;6238381;28;96317;-67
2023/10/02 10:23:34;;;;;;;;;7.80;7.80;;;;;34.02;62.20;99566.81;6238677;27;96319;-67
2023/10/02 10:26:39;;;;;;;;;8.00;7.00;;;;;34.31;59.22;99572.78;6236800;28;96416;-66
2023/10/02 10:29:43;;;;;;;;;6.00;6.00;;;;;34.56;59.44;99573.38;6239259;28;97030;-67
2023/10/02 10:33:27;;;;;;;;;6.25;6.25;;;;;34.85;57.90;99568.44;6238439;28;96933;-67
2023/10/02 10:36:38;;;;;;;;;7.20;7.20;;;;;34.42;57.46;99569.44;6225973;28;96323;-67
2023/10/02 10:40:40;;;;;;;;;9.00;8.60;;;;;34.03;57.88;99569.25;6238753;28;96612;-67
2023/10/02 10:43:43;;;;;;;;;6.00;5.40;;;;;33.92;62.09;99560.59;6238205;28;96398;-67
2023/10/02 10:46:48;;;;;;;;;8.60;7.60;;;;;34.18;59.78;99565.69;6238375;28;96383;-67
2023/10/02 10:50:11;;;;;;;;;6.00;5.60;;;;;34.13;56.76;99553.91;6238264;28;96422;-67
2023/10/02 10:53:29;;;;;;;;;6.00;6.00;;;;;34.43;56.24;99560.69;6219602;28;96385;-67
2023/10/02 10:56:35;;;;;;;;;5.00;5.00;;;;;34.81;53.94;99553.56;6219823;28;96619;-67
2023/10/02 10:59:38;;;;;;;;;6.60;6.00;;;;;34.64;52.89;99552.78;6238103;28;96390;-67
2023/10/02 11:02:42;;;;;;;;;4.00;4.00;;;;;34.69;55.86;99543.31;6238332;28;96420;-67
2023/10/02 11:05:45;;;;;;;;;5.00;5.00;;;;;34.71;54.78;99540.94;6219134;28;97432;-66
2023/10/02 11:09:11;;;;;;;;;6.25;6.00;;;;;34.48;54.18;99538.00;6215874;28;96314;-67
2023/10/02 11:12:17;;;;;;;;;8.00;8.00;;;;;34.40;58.15;99536.22;6227065;28;96304;-67
2023/10/02 11:15:44;;;;;;;;;8.00;7.60;;;;;34.72;56.90;99534.16;6236976;28;96424;-67
2023/10/02 11:19:10;;;;;;;;;5.00;5.00;;;;;34.68;54.72;99530.47;6216849;28;96926;-67
2023/10/02 11:22:19;;;;;;;;;7.67;7.00;;;;;34.37;57.49;99522.94;6224017;28;96692;-66
2023/10/02 11:25:24;;;;;;;;;6.80;5.80;;;;;34.28;60.37;99516.72;6187683;28;96727;-67
2023/10/02 11:28:32;;;;;;;;;5.00;5.00;;;;;34.08;61.91;99518.63;6237400;28;97553;-67
2023/10/02 11:31:36;;;;;;;;;7.00;6.00;;;;;33.67;62.31;99513.56;6193349;28;96849;-67
2023/10/02 11:34:41;;;;;;;;;5.40;5.00;;;;;33.63;62.75;99521.03;6218578;28;96832;-67
2023/10/02 11:37:48;;;;;;;;;6.00;6.00;;;;;33.28;68.60;99518.91;6234065;28;96323;-67
2023/10/02 11:40:52;;;;;;;;;6.00;6.00;;;;;33.86;64.59;99519.28;6228288;28;96671;-67
2023/10/02 11:43:57;;;;;;;;;9.00;8.00;;;;;34.71;62.42;99518.53;6230602;28;97023;-67
2023/10/02 11:47:00;;;;;;;;;5.00;4.60;;;;;35.26;57.96;99502.47;6225670;28;96357;-67
2023/10/02 11:50:04;;;;;;;;;4.00;4.00;;;;;35.38;55.82;99517.16;6237040;28;96476;-67
2023/10/02 11:53:07;;;;;;;;;4.00;4.00;;;;;35.14;57.85;99506.19;6217955;28;96877;-65
2023/10/02 11:56:11;;;;;;;;;5.00;5.00;;;;;35.26;59.24;99510.88;6223436;28;96282;-67
2023/10/02 11:59:15;;;;;;;;;6.00;6.00;;;;;35.57;54.05;99510.69;6236931;28;96327;-67
2023/10/02 12:02:19;;;;;;;;;5.00;4.80;;;;;35.24;55.51;99507.66;6236244;28;96858;-67
2023/10/02 12:05:22;;;;;;;;;6.50;6.00;;;;;34.74;57.65;99507.41;6219134;28;96477;-66
2023/10/02 12:08:26;;;;;;;;;4.25;4.25;;;;;34.63;59.88;99506.34;6236462;28;96796;-67
2023/10/02 12:11:34;;;;;;;;;3.60;3.60;;;;;34.29;62.59;99496.78;6207993;28;96668;-66
2023/10/02 12:14:39;;;;;;;;;5.00;5.00;;;;;33.55;65.65;99494.06;6229977;28;96381;-66
2023/10/02 12:17:44;;;;;;;;;7.00;6.00;;;;;33.27;67.61;99488.53;6216280;28;96415;-67
2023/10/02 12:20:49;;;;;;;;;5.00;5.00;;;;;33.49;70.04;99491.53;6200777;28;98927;-67
2023/10/02 12:23:52;;;;;;;;;6.00;6.00;;;;;33.51;67.15;99492.00;6234544;28;96581;-67
2023/10/02 12:26:55;;;;;;;;;4.80;4.80;;;;;33.46;67.44;99492.25;6236477;28;97534;-67
2023/10/02 12:30:00;;;;;;;;;5.00;5.00;;;;;32.82;70.83;99491.63;6239421;27;96357;-66
2023/10/02 12:33:03;;;;;;;;;5.75;4.75;;;;;32.45;75.91;99488.91;6230071;27;96321;-66
2023/10/02 12:36:15;;;;;;;;;8.40;7.00;;;;;32.08;78.84;99490.09;6233703;28;96442;-67
2023/10/02 12:39:18;;;;;;;;;4.60;4.60;;;;;31.86;77.99;99487.78;6239458;28;96726;-68
2023/10/02 12:42:21;;;;;;;;;6.00;6.00;;;;;31.40;79.38;99490.59;6239954;28;96523;-67
2023/10/02 12:45:26;;;;;;;;;6.00;5.00;;;;;31.10;82.21;99482.72;6232033;28;96855;-67
2023/10/02 12:48:30;;;;;;;;;4.00;4.00;;;;;31.33;83.38;99464.44;6238743;28;96394;-67
2023/10/02 12:51:33;;;;;;;;;5.00;5.00;;;;;31.23;83.28;99474.06;6239509;28;96370;-67
2023/10/02 12:54:37;;;;;;;;;5.00;4.00;;;;;31.12;86.21;99441.44;6251599;27;96667;-67
2023/10/02 12:57:40;;;;;;;;;4.50;4.50;;;;;31.11;84.67;99467.66;6239303;27;96876;-68
2023/10/02 13:00:48;;;;;;;;;4.80;4.80;;;;;30.83;87.39;99462.66;6214299;28;96433;-67
2023/10/02 13:03:52;;;;;;;;;3.00;2.75;;;;;31.10;85.83;99454.88;6227245;28;96279;-67
2023/10/02 13:06:55;;;;;;;;;4.00;4.00;;;;;31.48;88.89;99458.22;6206591;27;98919;-67
2023/10/02 13:09:58;;;;;;;;;5.00;5.00;;;;;31.80;86.95;99454.56;6231943;27;98367;-66
2023/10/02 13:13:04;;;;;;;;;6.00;5.20;;;;;32.10;84.04;99468.25;6235423;28;96271;-67
2023/10/02 13:16:09;;;;;;;;;8.00;7.00;;;;;32.18;83.32;99465.34;6230872;27;96502;-67
2023/10/02 13:19:12;;;;;;;;;6.80;5.40;;;;;32.42;81.60;99452.50;6216516;28;97210;-66
2023/10/02 13:22:16;;;;;;;;;5.00;5.00;;;;;32.50;80.48;99446.78;6246329;27;98541;-67
2023/10/02 13:25:21;;;;;;;;;4.50;4.50;;;;;32.63;80.21;99445.63;6216552;28;96478;-69
2023/10/02 13:28:25;;;;;;;;;6.00;6.00;;;;;32.13;79.76;99440.50;6225675;27;96661;-67
2023/10/02 13:31:29;;;;;;;;;4.20;4.20;;;;;32.20;79.47;99442.69;6224643;27;98157;-66
2023/10/02 13:34:32;;;;;;;;;8.00;7.00;;;;;32.42;79.56;99438.56;6233428;27;96422;-66
2023/10/02 13:37:36;;;;;;;;;4.60;4.60;;;;;32.55;77.62;99434.53;6234445;27;96881;-66
2023/10/02 13:40:39;;;;;;;;;6.00;6.00;;;;;32.59;77.02;99433.50;6236020;27;96395;-66
2023/10/02 13:43:44;;;;;;;;;7.40;7.00;;;;;32.49;77.30;99427.63;6240898;27;96255;-67
2023/10/02 13:46:51;;;;;;;;;5.80;5.80;;;;;32.31;76.73;99423.47;6238345;27;96557;-66
2023/10/02 13:49:56;;;;;;;;;4.25;4.00;;;;;32.11;77.14;99426.06;6238436;27;96370;-67
2023/10/02 13:53:01;;;;;;;;;6.00;6.00;;;;;31.96;78.58;99409.22;6246151;27;96323;-67
2023/10/02 13:56:09;;;;;;;;;4.40;4.40;;;;;31.96;80.14;99412.03;6200383;28;96810;-66
2023/10/02 13:59:14;;;;;;;;;6.00;6.00;;;;;31.85;78.54;99414.47;6235928;27;96507;-66
2023/10/02 14:02:19;;;;;;;;;5.00;4.40;;;;;31.85;80.58;99416.44;6234964;27;96265;-66
2023/10/02 14:05:29;;;;;;;;;5.00;5.00;;;;;31.31;79.51;99403.50;6236828;27;96484;-66
2023/10/02 14:08:33;;;;;;;;;6.00;6.00;;;;;30.96;82.81;99405.84;6234235;27;96605;-69
2023/10/02 14:11:39;;;;;;;;;5.40;5.00;;;;;30.78;85.24;99403.59;6234048;27;96326;-66
2023/10/02 14:14:44;;;;;;;;;4.50;4.00;;;;;30.77;82.92;99399.19;6198225;28;96828;-66
2023/10/02 14:17:49;;;;;;;;;4.40;4.40;;;;;30.63;85.48;99399.50;6230312;27;97128;-66
2023/10/02 14:21:00;;;;;;;;;6.60;5.60;;;;;30.44;85.67;99401.91;6247224;27;96949;-66
2023/10/02 14:24:04;;;;;;;;;3.50;3.50;;;;;30.34;86.06;99397.59;6233989;27;96682;-65
2023/10/02 14:27:08;;;;;;;;;5.00;5.00;;;;;30.34;85.62;99399.56;6234211;27;97171;-66
2023/10/02 14:30:13;;;;;;;;;6.40;6.40;;;;;30.28;85.07;99385.03;6236341;27;96363;-66
2023/10/02 14:33:18;;;;;;;;;5.60;5.60;;;;;30.40;87.16;99393.41;6231752;27;96676;-66
2023/10/02 14:36:22;;;;;;;;;5.00;5.00;;;;;30.44;87.02;99388.81;6258885;27;96437;-67
2023/10/02 14:39:30;;;;;;;;;5.00;5.00;;;;;30.33;88.01;99392.34;6208586;28;96836;-67
2023/10/02 14:42:34;;;;;;;;;3.75;3.00;;;;;30.23;88.84;99385.22;6252349;27;96844;-66
2023/10/02 14:45:39;;;;;;;;;6.60;6.00;;;;;29.84;89.51;99399.56;6250639;27;96447;-66
2023/10/02 14:48:43;;;;;;;;;6.00;6.00;;;;;29.77;89.17;99394.50;6226739;27;97251;-69
2023/10/02 14:51:49;;;;;;;;;3.80;3.80;;;;;29.74;88.96;99389.63;6213945;27;96382;-66
2023/10/02 14:54:54;;;;;;;;;4.75;4.75;;;;;29.36;89.96;99386.91;6215832;27;96905;-66
2023/10/02 14:57:57;;;;;;;;;3.60;3.60;;;;;29.05;91.75;99387.16;6233474;27;97402;-66